sensor_id;sensor_type;location;lat;lon;timestamp;P1;durP1;ratioP1;P2;durP2;ratioP2
11008;SDS011;5557;51.670;7.788;2024-02-21T00:01:32;31.33;;;11.73;;
11008;SDS011;5557;51.670;7.788;2024-02-21T00:04:00;24.70;;;11.97;;
11008;SDS011;5557;51.670;7.788;2024-02-21T00:06:27;19.47;;;11.67;;
11008;SDS011;5557;51.670;7.788;2024-02-21T00:08:54;26.27;;;11.10;;
11008;SDS011;5557;51.670;7.788;2024-02-21T00:11:21;24.87;;;11.70;;
11008;SDS011;5557;51.670;7.788;2024-02-21T00:13:48;23.23;;;10.50;;
11008;SDS011;5557;51.670;7.788;2024-02-21T00:16:17;19.00;;;10.60;;
11008;SDS011;5557;51.670;7.788;2024-02-21T00:18:45;24.83;;;11.73;;
11008;SDS011;5557;51.670;7.788;2024-02-21T00:21:12;17.33;;;9.40;;
11008;SDS011;5557;51.670;7.788;2024-02-21T00:23:44;31.33;;;11.37;;
11008;SDS011;5557;51.670;7.788;2024-02-21T00:26:17;23.93;;;10.30;;
11008;SDS011;5557;51.670;7.788;2024-02-21T00:28:44;30.00;;;11.63;;
11008;SDS011;5557;51.670;7.788;2024-02-21T00:31:11;21.17;;;10.80;;
11008;SDS011;5557;51.670;7.788;2024-02-21T00:33:40;23.90;;;11.10;;
11008;SDS011;5557;51.670;7.788;2024-02-21T00:36:09;28.97;;;11.53;;
11008;SDS011;5557;51.670;7.788;2024-02-21T00:38:36;18.13;;;10.80;;
11008;SDS011;5557;51.670;7.788;2024-02-21T00:41:03;23.17;;;11.20;;
11008;SDS011;5557;51.670;7.788;2024-02-21T00:43:30;21.50;;;11.97;;
11008;SDS011;5557;51.670;7.788;2024-02-21T00:45:57;23.97;;;11.60;;
11008;SDS011;5557;51.670;7.788;2024-02-21T00:48:24;21.13;;;11.40;;
11008;SDS011;5557;51.670;7.788;2024-02-21T00:50:51;22.57;;;11.97;;
11008;SDS011;5557;51.670;7.788;2024-02-21T00:53:19;29.87;;;12.90;;
11008;SDS011;5557;51.670;7.788;2024-02-21T00:55:46;31.27;;;12.23;;
11008;SDS011;5557;51.670;7.788;2024-02-21T00:58:13;23.47;;;11.20;;
11008;SDS011;5557;51.670;7.788;2024-02-21T01:00:40;21.50;;;11.23;;
11008;SDS011;5557;51.670;7.788;2024-02-21T01:03:07;20.13;;;11.30;;
11008;SDS011;5557;51.670;7.788;2024-02-21T01:05:37;23.27;;;11.30;;
11008;SDS011;5557;51.670;7.788;2024-02-21T01:08:06;28.87;;;12.33;;
11008;SDS011;5557;51.670;7.788;2024-02-21T01:10:34;21.57;;;11.83;;
11008;SDS011;5557;51.670;7.788;2024-02-21T01:13:01;20.50;;;12.17;;
11008;SDS011;5557;51.670;7.788;2024-02-21T01:15:28;19.13;;;11.37;;
11008;SDS011;5557;51.670;7.788;2024-02-21T01:17:55;30.40;;;12.27;;
11008;SDS011;5557;51.670;7.788;2024-02-21T01:20:22;23.43;;;11.73;;
11008;SDS011;5557;51.670;7.788;2024-02-21T01:22:52;24.10;;;12.93;;
11008;SDS011;5557;51.670;7.788;2024-02-21T01:25:20;29.40;;;12.50;;
11008;SDS011;5557;51.670;7.788;2024-02-21T01:27:56;22.63;;;11.53;;
11008;SDS011;5557;51.670;7.788;2024-02-21T01:30:23;30.37;;;12.57;;
11008;SDS011;5557;51.670;7.788;2024-02-21T01:32:51;25.33;;;13.27;;
11008;SDS011;5557;51.670;7.788;2024-02-21T01:35:21;34.07;;;12.40;;
11008;SDS011;5557;51.670;7.788;2024-02-21T01:37:49;20.93;;;11.60;;
11008;SDS011;5557;51.670;7.788;2024-02-21T01:40:18;22.83;;;12.73;;
11008;SDS011;5557;51.670;7.788;2024-02-21T01:42:45;35.07;;;13.70;;
11008;SDS011;5557;51.670;7.788;2024-02-21T01:45:14;24.57;;;12.37;;
11008;SDS011;5557;51.670;7.788;2024-02-21T01:47:44;25.13;;;12.30;;
11008;SDS011;5557;51.670;7.788;2024-02-21T01:50:12;30.57;;;12.67;;
11008;SDS011;5557;51.670;7.788;2024-02-21T01:52:41;22.10;;;13.00;;
11008;SDS011;5557;51.670;7.788;2024-02-21T01:55:13;21.00;;;12.83;;
11008;SDS011;5557;51.670;7.788;2024-02-21T01:57:41;27.10;;;12.30;;
11008;SDS011;5557;51.670;7.788;2024-02-21T02:00:14;25.00;;;12.70;;
11008;SDS011;5557;51.670;7.788;2024-02-21T02:02:42;23.40;;;12.33;;
11008;SDS011;5557;51.670;7.788;2024-02-21T02:05:11;25.33;;;12.60;;
11008;SDS011;5557;51.670;7.788;2024-02-21T02:07:38;25.83;;;12.20;;
11008;SDS011;5557;51.670;7.788;2024-02-21T02:10:06;27.33;;;12.27;;
11008;SDS011;5557;51.670;7.788;2024-02-21T02:12:33;25.07;;;12.80;;
11008;SDS011;5557;51.670;7.788;2024-02-21T02:15:03;27.87;;;12.37;;
11008;SDS011;5557;51.670;7.788;2024-02-21T02:17:33;22.53;;;11.70;;
11008;SDS011;5557;51.670;7.788;2024-02-21T02:20:03;32.80;;;13.00;;
11008;SDS011;5557;51.670;7.788;2024-02-21T02:22:32;22.17;;;10.90;;
11008;SDS011;5557;51.670;7.788;2024-02-21T02:25:03;30.70;;;11.87;;
11008;SDS011;5557;51.670;7.788;2024-02-21T02:27:33;30.47;;;12.07;;
11008;SDS011;5557;51.670;7.788;2024-02-21T02:30:10;22.23;;;11.30;;
11008;SDS011;5557;51.670;7.788;2024-02-21T02:32:43;25.43;;;11.47;;
11008;SDS011;5557;51.670;7.788;2024-02-21T02:35:14;24.27;;;11.07;;
11008;SDS011;5557;51.670;7.788;2024-02-21T02:37:51;25.83;;;12.03;;
11008;SDS011;5557;51.670;7.788;2024-02-21T02:40:18;25.60;;;11.50;;
11008;SDS011;5557;51.670;7.788;2024-02-21T02:42:46;19.83;;;11.23;;
11008;SDS011;5557;51.670;7.788;2024-02-21T02:45:15;23.40;;;11.90;;
11008;SDS011;5557;51.670;7.788;2024-02-21T02:47:46;19.43;;;11.23;;
11008;SDS011;5557;51.670;7.788;2024-02-21T02:50:14;20.03;;;10.20;;
11008;SDS011;5557;51.670;7.788;2024-02-21T02:52:41;22.27;;;10.90;;
11008;SDS011;5557;51.670;7.788;2024-02-21T02:55:08;23.43;;;10.37;;
11008;SDS011;5557;51.670;7.788;2024-02-21T02:57:42;25.93;;;10.40;;
11008;SDS011;5557;51.670;7.788;2024-02-21T03:00:13;20.47;;;10.73;;
11008;SDS011;5557;51.670;7.788;2024-02-21T03:02:41;26.23;;;11.43;;
11008;SDS011;5557;51.670;7.788;2024-02-21T03:05:20;23.20;;;10.60;;
11008;SDS011;5557;51.670;7.788;2024-02-21T03:07:48;23.00;;;10.40;;
11008;SDS011;5557;51.670;7.788;2024-02-21T03:10:16;26.50;;;11.13;;
11008;SDS011;5557;51.670;7.788;2024-02-21T03:12:44;17.37;;;11.37;;
11008;SDS011;5557;51.670;7.788;2024-02-21T03:15:12;19.73;;;10.23;;
11008;SDS011;5557;51.670;7.788;2024-02-21T03:17:42;28.90;;;11.83;;
11008;SDS011;5557;51.670;7.788;2024-02-21T03:20:10;18.33;;;10.00;;
11008;SDS011;5557;51.670;7.788;2024-02-21T03:22:39;23.43;;;10.90;;
11008;SDS011;5557;51.670;7.788;2024-02-21T03:27:41;29.90;;;12.00;;
11008;SDS011;5557;51.670;7.788;2024-02-21T03:30:11;33.00;;;12.17;;
11008;SDS011;5557;51.670;7.788;2024-02-21T03:32:40;22.20;;;11.20;;
11008;SDS011;5557;51.670;7.788;2024-02-21T03:35:17;25.50;;;11.47;;
11008;SDS011;5557;51.670;7.788;2024-02-21T03:37:50;21.33;;;11.37;;
11008;SDS011;5557;51.670;7.788;2024-02-21T03:42:50;15.50;;;10.20;;
11008;SDS011;5557;51.670;7.788;2024-02-21T03:45:17;20.07;;;11.23;;
11008;SDS011;5557;51.670;7.788;2024-02-21T03:47:44;21.73;;;11.23;;
11008;SDS011;5557;51.670;7.788;2024-02-21T03:50:11;23.10;;;10.20;;
11008;SDS011;5557;51.670;7.788;2024-02-21T03:52:38;12.00;;;10.17;;
11008;SDS011;5557;51.670;7.788;2024-02-21T03:55:06;21.67;;;11.27;;
11008;SDS011;5557;51.670;7.788;2024-02-21T03:57:34;26.67;;;11.43;;
11008;SDS011;5557;51.670;7.788;2024-02-21T04:00:01;26.80;;;11.73;;
11008;SDS011;5557;51.670;7.788;2024-02-21T04:02:29;18.63;;;9.80;;
11008;SDS011;5557;51.670;7.788;2024-02-21T04:04:57;19.20;;;9.80;;
11008;SDS011;5557;51.670;7.788;2024-02-21T04:07:26;22.93;;;10.43;;
11008;SDS011;5557;51.670;7.788;2024-02-21T04:09:53;18.83;;;10.40;;
11008;SDS011;5557;51.670;7.788;2024-02-21T04:12:20;21.80;;;10.50;;
11008;SDS011;5557;51.670;7.788;2024-02-21T04:14:47;24.13;;;11.10;;
11008;SDS011;5557;51.670;7.788;2024-02-21T04:17:15;20.93;;;10.00;;
11008;SDS011;5557;51.670;7.788;2024-02-21T04:19:42;20.20;;;10.27;;
11008;SDS011;5557;51.670;7.788;2024-02-21T04:22:09;15.80;;;10.20;;
11008;SDS011;5557;51.670;7.788;2024-02-21T04:24:36;29.80;;;10.83;;
11008;SDS011;5557;51.670;7.788;2024-02-21T04:27:03;21.73;;;10.50;;
11008;SDS011;5557;51.670;7.788;2024-02-21T04:29:31;25.60;;;10.53;;
11008;SDS011;5557;51.670;7.788;2024-02-21T04:31:58;26.10;;;11.13;;
11008;SDS011;5557;51.670;7.788;2024-02-21T04:34:27;15.63;;;9.93;;
11008;SDS011;5557;51.670;7.788;2024-02-21T04:37:02;16.83;;;9.87;;
11008;SDS011;5557;51.670;7.788;2024-02-21T04:39:31;20.40;;;10.70;;
11008;SDS011;5557;51.670;7.788;2024-02-21T04:41:59;17.73;;;9.30;;
11008;SDS011;5557;51.670;7.788;2024-02-21T04:44:26;21.83;;;10.93;;
11008;SDS011;5557;51.670;7.788;2024-02-21T04:46:53;20.60;;;11.57;;
11008;SDS011;5557;51.670;7.788;2024-02-21T04:49:21;21.03;;;9.60;;
11008;SDS011;5557;51.670;7.788;2024-02-21T04:51:48;25.87;;;10.33;;
11008;SDS011;5557;51.670;7.788;2024-02-21T04:54:16;18.30;;;10.70;;
11008;SDS011;5557;51.670;7.788;2024-02-21T04:56:43;20.23;;;11.07;;
11008;SDS011;5557;51.670;7.788;2024-02-21T04:59:10;19.87;;;9.13;;
11008;SDS011;5557;51.670;7.788;2024-02-21T05:01:46;17.73;;;8.93;;
11008;SDS011;5557;51.670;7.788;2024-02-21T05:04:14;18.67;;;10.47;;
11008;SDS011;5557;51.670;7.788;2024-02-21T05:06:41;10.33;;;9.00;;
11008;SDS011;5557;51.670;7.788;2024-02-21T05:09:09;28.37;;;10.07;;
11008;SDS011;5557;51.670;7.788;2024-02-21T05:11:36;15.27;;;9.73;;
11008;SDS011;5557;51.670;7.788;2024-02-21T05:14:06;14.27;;;8.80;;
11008;SDS011;5557;51.670;7.788;2024-02-21T05:16:33;18.10;;;9.13;;
11008;SDS011;5557;51.670;7.788;2024-02-21T05:19:01;21.80;;;9.10;;
11008;SDS011;5557;51.670;7.788;2024-02-21T05:21:29;21.60;;;9.63;;
11008;SDS011;5557;51.670;7.788;2024-02-21T05:23:56;13.60;;;8.27;;
11008;SDS011;5557;51.670;7.788;2024-02-21T05:26:26;16.37;;;9.90;;
11008;SDS011;5557;51.670;7.788;2024-02-21T05:28:54;11.40;;;8.63;;
11008;SDS011;5557;51.670;7.788;2024-02-21T05:31:21;15.77;;;8.20;;
11008;SDS011;5557;51.670;7.788;2024-02-21T05:33:50;14.33;;;9.70;;
11008;SDS011;5557;51.670;7.788;2024-02-21T05:36:17;18.03;;;9.07;;
11008;SDS011;5557;51.670;7.788;2024-02-21T05:38:44;15.30;;;8.43;;
11008;SDS011;5557;51.670;7.788;2024-02-21T05:41:12;20.67;;;9.57;;
11008;SDS011;5557;51.670;7.788;2024-02-21T05:43:40;17.80;;;8.90;;
11008;SDS011;5557;51.670;7.788;2024-02-21T05:46:07;14.60;;;8.50;;
11008;SDS011;5557;51.670;7.788;2024-02-21T05:48:34;11.77;;;7.90;;
11008;SDS011;5557;51.670;7.788;2024-02-21T05:51:08;14.40;;;8.60;;
11008;SDS011;5557;51.670;7.788;2024-02-21T05:53:36;17.90;;;8.10;;
11008;SDS011;5557;51.670;7.788;2024-02-21T05:56:13;13.50;;;7.67;;
11008;SDS011;5557;51.670;7.788;2024-02-21T05:58:40;11.53;;;8.23;;
11008;SDS011;5557;51.670;7.788;2024-02-21T06:01:08;9.80;;;7.60;;
11008;SDS011;5557;51.670;7.788;2024-02-21T06:03:35;14.70;;;7.73;;
11008;SDS011;5557;51.670;7.788;2024-02-21T06:06:05;13.00;;;7.90;;
11008;SDS011;5557;51.670;7.788;2024-02-21T06:08:32;13.53;;;7.60;;
11008;SDS011;5557;51.670;7.788;2024-02-21T06:10:59;16.27;;;7.50;;
11008;SDS011;5557;51.670;7.788;2024-02-21T06:13:27;15.80;;;5.90;;
11008;SDS011;5557;51.670;7.788;2024-02-21T06:15:54;17.80;;;7.67;;
11008;SDS011;5557;51.670;7.788;2024-02-21T06:18:21;16.43;;;7.50;;
11008;SDS011;5557;51.670;7.788;2024-02-21T06:20:48;21.77;;;8.93;;
11008;SDS011;5557;51.670;7.788;2024-02-21T06:23:15;15.20;;;7.53;;
11008;SDS011;5557;51.670;7.788;2024-02-21T06:25:43;16.60;;;7.93;;
11008;SDS011;5557;51.670;7.788;2024-02-21T06:28:10;13.70;;;7.07;;
11008;SDS011;5557;51.670;7.788;2024-02-21T06:30:37;10.10;;;6.33;;
11008;SDS011;5557;51.670;7.788;2024-02-21T06:33:07;17.13;;;7.60;;
11008;SDS011;5557;51.670;7.788;2024-02-21T06:35:39;19.23;;;7.90;;
11008;SDS011;5557;51.670;7.788;2024-02-21T06:38:09;19.53;;;7.40;;
11008;SDS011;5557;51.670;7.788;2024-02-21T06:40:37;14.63;;;7.47;;
11008;SDS011;5557;51.670;7.788;2024-02-21T06:43:06;16.73;;;8.03;;
11008;SDS011;5557;51.670;7.788;2024-02-21T06:45:33;10.33;;;7.10;;
11008;SDS011;5557;51.670;7.788;2024-02-21T06:48:01;15.63;;;6.77;;
11008;SDS011;5557;51.670;7.788;2024-02-21T06:50:28;17.03;;;7.77;;
11008;SDS011;5557;51.670;7.788;2024-02-21T06:52:55;19.90;;;6.97;;
11008;SDS011;5557;51.670;7.788;2024-02-21T06:55:23;10.33;;;6.67;;
11008;SDS011;5557;51.670;7.788;2024-02-21T06:57:50;13.23;;;6.87;;
11008;SDS011;5557;51.670;7.788;2024-02-21T07:00:17;10.93;;;6.70;;
11008;SDS011;5557;51.670;7.788;2024-02-21T07:02:44;12.33;;;7.13;;
11008;SDS011;5557;51.670;7.788;2024-02-21T07:05:11;6.97;;;6.17;;
11008;SDS011;5557;51.670;7.788;2024-02-21T07:07:38;13.60;;;6.40;;
11008;SDS011;5557;51.670;7.788;2024-02-21T07:10:07;11.03;;;6.30;;
11008;SDS011;5557;51.670;7.788;2024-02-21T07:12:34;9.70;;;5.23;;
11008;SDS011;5557;51.670;7.788;2024-02-21T07:15:03;14.47;;;6.07;;
11008;SDS011;5557;51.670;7.788;2024-02-21T07:17:33;8.40;;;5.23;;
11008;SDS011;5557;51.670;7.788;2024-02-21T07:20:00;9.90;;;6.27;;
11008;SDS011;5557;51.670;7.788;2024-02-21T07:22:28;6.30;;;5.10;;
11008;SDS011;5557;51.670;7.788;2024-02-21T07:24:57;8.60;;;4.60;;
11008;SDS011;5557;51.670;7.788;2024-02-21T07:27:26;7.37;;;4.83;;
11008;SDS011;5557;51.670;7.788;2024-02-21T07:29:57;6.13;;;5.30;;
11008;SDS011;5557;51.670;7.788;2024-02-21T07:32:24;5.23;;;4.67;;
11008;SDS011;5557;51.670;7.788;2024-02-21T07:34:52;9.97;;;4.60;;
11008;SDS011;5557;51.670;7.788;2024-02-21T07:37:20;6.53;;;4.87;;
11008;SDS011;5557;51.670;7.788;2024-02-21T07:39:48;10.37;;;4.83;;
11008;SDS011;5557;51.670;7.788;2024-02-21T07:42:15;13.97;;;4.83;;
11008;SDS011;5557;51.670;7.788;2024-02-21T07:44:42;8.53;;;4.73;;
11008;SDS011;5557;51.670;7.788;2024-02-21T07:47:09;10.73;;;4.50;;
11008;SDS011;5557;51.670;7.788;2024-02-21T07:49:44;7.20;;;4.53;;
11008;SDS011;5557;51.670;7.788;2024-02-21T07:52:12;4.70;;;3.87;;
11008;SDS011;5557;51.670;7.788;2024-02-21T07:54:39;5.47;;;4.20;;
11008;SDS011;5557;51.670;7.788;2024-02-21T07:57:07;4.40;;;4.00;;
11008;SDS011;5557;51.670;7.788;2024-02-21T07:59:34;7.20;;;3.90;;
11008;SDS011;5557;51.670;7.788;2024-02-21T08:02:03;8.33;;;4.40;;
11008;SDS011;5557;51.670;7.788;2024-02-21T08:04:33;4.97;;;4.47;;
11008;SDS011;5557;51.670;7.788;2024-02-21T08:07:03;10.63;;;4.63;;
11008;SDS011;5557;51.670;7.788;2024-02-21T08:09:32;7.30;;;3.43;;
11008;SDS011;5557;51.670;7.788;2024-02-21T08:11:59;8.17;;;4.53;;
11008;SDS011;5557;51.670;7.788;2024-02-21T08:14:27;16.83;;;4.97;;
11008;SDS011;5557;51.670;7.788;2024-02-21T08:16:54;7.87;;;4.33;;
11008;SDS011;5557;51.670;7.788;2024-02-21T08:19:22;8.50;;;4.93;;
11008;SDS011;5557;51.670;7.788;2024-02-21T08:21:49;7.67;;;3.23;;
11008;SDS011;5557;51.670;7.788;2024-02-21T08:24:17;10.93;;;4.80;;
11008;SDS011;5557;51.670;7.788;2024-02-21T08:26:44;7.27;;;4.20;;
11008;SDS011;5557;51.670;7.788;2024-02-21T08:29:11;11.80;;;4.77;;
11008;SDS011;5557;51.670;7.788;2024-02-21T08:31:38;10.63;;;5.57;;
11008;SDS011;5557;51.670;7.788;2024-02-21T08:34:07;6.87;;;4.57;;
11008;SDS011;5557;51.670;7.788;2024-02-21T08:36:35;4.77;;;4.33;;
11008;SDS011;5557;51.670;7.788;2024-02-21T08:39:03;8.80;;;4.57;;
11008;SDS011;5557;51.670;7.788;2024-02-21T08:41:32;9.77;;;4.73;;
11008;SDS011;5557;51.670;7.788;2024-02-21T08:44:21;7.07;;;4.47;;
11008;SDS011;5557;51.670;7.788;2024-02-21T08:46:50;13.97;;;5.73;;
11008;SDS011;5557;51.670;7.788;2024-02-21T08:49:17;9.10;;;5.20;;
11008;SDS011;5557;51.670;7.788;2024-02-21T08:51:44;18.17;;;5.87;;
11008;SDS011;5557;51.670;7.788;2024-02-21T08:54:12;9.63;;;5.87;;
11008;SDS011;5557;51.670;7.788;2024-02-21T08:56:39;8.00;;;4.60;;
11008;SDS011;5557;51.670;7.788;2024-02-21T08:59:06;7.87;;;4.77;;
11008;SDS011;5557;51.670;7.788;2024-02-21T09:01:33;10.30;;;5.30;;
11008;SDS011;5557;51.670;7.788;2024-02-21T09:04:02;9.03;;;5.20;;
11008;SDS011;5557;51.670;7.788;2024-02-21T09:06:29;10.77;;;6.37;;
11008;SDS011;5557;51.670;7.788;2024-02-21T09:08:57;10.10;;;5.90;;
11008;SDS011;5557;51.670;7.788;2024-02-21T09:11:24;11.43;;;5.40;;
11008;SDS011;5557;51.670;7.788;2024-02-21T09:13:54;8.00;;;5.30;;
11008;SDS011;5557;51.670;7.788;2024-02-21T09:16:21;8.90;;;5.10;;
11008;SDS011;5557;51.670;7.788;2024-02-21T09:18:50;11.67;;;6.17;;
11008;SDS011;5557;51.670;7.788;2024-02-21T09:21:17;12.50;;;5.27;;
11008;SDS011;5557;51.670;7.788;2024-02-21T09:23:45;9.77;;;4.50;;
11008;SDS011;5557;51.670;7.788;2024-02-21T09:26:12;6.30;;;4.43;;
11008;SDS011;5557;51.670;7.788;2024-02-21T09:28:43;9.10;;;5.53;;
11008;SDS011;5557;51.670;7.788;2024-02-21T09:31:13;13.70;;;4.80;;
11008;SDS011;5557;51.670;7.788;2024-02-21T09:33:41;6.00;;;5.30;;
11008;SDS011;5557;51.670;7.788;2024-02-21T09:36:10;5.90;;;4.50;;
11008;SDS011;5557;51.670;7.788;2024-02-21T09:38:39;9.93;;;4.90;;
11008;SDS011;5557;51.670;7.788;2024-02-21T09:41:14;7.13;;;5.83;;
11008;SDS011;5557;51.670;7.788;2024-02-21T09:43:46;5.77;;;5.10;;
11008;SDS011;5557;51.670;7.788;2024-02-21T09:46:17;6.17;;;5.57;;
11008;SDS011;5557;51.670;7.788;2024-02-21T09:51:43;9.60;;;6.60;;
11008;SDS011;5557;51.670;7.788;2024-02-21T09:54:11;14.07;;;6.00;;
11008;SDS011;5557;51.670;7.788;2024-02-21T09:56:44;12.43;;;5.93;;
11008;SDS011;5557;51.670;7.788;2024-02-21T09:59:15;9.13;;;6.03;;
11008;SDS011;5557;51.670;7.788;2024-02-21T10:01:43;13.30;;;6.17;;
11008;SDS011;5557;51.670;7.788;2024-02-21T10:04:13;15.83;;;7.13;;
11008;SDS011;5557;51.670;7.788;2024-02-21T10:06:41;11.60;;;6.00;;
11008;SDS011;5557;51.670;7.788;2024-02-21T10:09:08;13.83;;;6.63;;
11008;SDS011;5557;51.670;7.788;2024-02-21T10:11:35;14.53;;;7.33;;
11008;SDS011;5557;51.670;7.788;2024-02-21T10:14:04;13.97;;;8.00;;
11008;SDS011;5557;51.670;7.788;2024-02-21T10:16:38;10.53;;;7.53;;
11008;SDS011;5557;51.670;7.788;2024-02-21T10:19:05;13.63;;;8.30;;
11008;SDS011;5557;51.670;7.788;2024-02-21T10:21:33;15.17;;;7.43;;
11008;SDS011;5557;51.670;7.788;2024-02-21T10:24:00;20.60;;;8.67;;
11008;SDS011;5557;51.670;7.788;2024-02-21T10:26:27;15.57;;;8.97;;
11008;SDS011;5557;51.670;7.788;2024-02-21T10:28:54;14.30;;;8.07;;
11008;SDS011;5557;51.670;7.788;2024-02-21T10:31:26;12.20;;;7.57;;
11008;SDS011;5557;51.670;7.788;2024-02-21T10:34:00;12.63;;;7.50;;
11008;SDS011;5557;51.670;7.788;2024-02-21T10:36:33;13.53;;;7.40;;
11008;SDS011;5557;51.670;7.788;2024-02-21T10:39:01;17.23;;;7.30;;
11008;SDS011;5557;51.670;7.788;2024-02-21T10:41:28;13.30;;;7.43;;
11008;SDS011;5557;51.670;7.788;2024-02-21T10:43:57;16.67;;;6.10;;
11008;SDS011;5557;51.670;7.788;2024-02-21T10:46:28;12.73;;;6.87;;
11008;SDS011;5557;51.670;7.788;2024-02-21T10:49:19;10.80;;;7.20;;
11008;SDS011;5557;51.670;7.788;2024-02-21T10:52:17;9.70;;;6.20;;
11008;SDS011;5557;51.670;7.788;2024-02-21T10:55:26;12.37;;;5.93;;
11008;SDS011;5557;51.670;7.788;2024-02-21T10:57:58;14.93;;;6.30;;
11008;SDS011;5557;51.670;7.788;2024-02-21T11:00:26;10.40;;;6.30;;
11008;SDS011;5557;51.670;7.788;2024-02-21T11:02:57;12.13;;;7.07;;
11008;SDS011;5557;51.670;7.788;2024-02-21T11:05:25;13.60;;;8.10;;
11008;SDS011;5557;51.670;7.788;2024-02-21T11:07:54;15.93;;;8.60;;
11008;SDS011;5557;51.670;7.788;2024-02-21T11:10:23;13.90;;;9.60;;
11008;SDS011;5557;51.670;7.788;2024-02-21T11:13:09;17.63;;;7.90;;
11008;SDS011;5557;51.670;7.788;2024-02-21T11:15:36;15.30;;;8.47;;
11008;SDS011;5557;51.670;7.788;2024-02-21T11:18:04;11.33;;;7.47;;
11008;SDS011;5557;51.670;7.788;2024-02-21T11:20:32;16.87;;;7.40;;
11008;SDS011;5557;51.670;7.788;2024-02-21T11:23:00;12.17;;;6.47;;
11008;SDS011;5557;51.670;7.788;2024-02-21T11:25:28;15.10;;;7.00;;
11008;SDS011;5557;51.670;7.788;2024-02-21T11:28:04;17.23;;;6.30;;
11008;SDS011;5557;51.670;7.788;2024-02-21T11:30:37;11.27;;;6.40;;
11008;SDS011;5557;51.670;7.788;2024-02-21T11:33:08;15.97;;;7.20;;
11008;SDS011;5557;51.670;7.788;2024-02-21T11:35:36;14.47;;;6.73;;
11008;SDS011;5557;51.670;7.788;2024-02-21T11:38:10;13.30;;;6.60;;
11008;SDS011;5557;51.670;7.788;2024-02-21T11:40:44;21.20;;;6.70;;
11008;SDS011;5557;51.670;7.788;2024-02-21T11:43:13;14.87;;;6.30;;
11008;SDS011;5557;51.670;7.788;2024-02-21T11:45:43;18.63;;;6.70;;
11008;SDS011;5557;51.670;7.788;2024-02-21T11:48:10;12.67;;;7.10;;
11008;SDS011;5557;51.670;7.788;2024-02-21T11:50:37;14.90;;;6.60;;
11008;SDS011;5557;51.670;7.788;2024-02-21T11:53:06;16.23;;;7.70;;
11008;SDS011;5557;51.670;7.788;2024-02-21T11:55:33;15.00;;;8.60;;
11008;SDS011;5557;51.670;7.788;2024-02-21T11:58:01;12.10;;;8.60;;
11008;SDS011;5557;51.670;7.788;2024-02-21T12:00:29;19.57;;;8.10;;
11008;SDS011;5557;51.670;7.788;2024-02-21T12:02:57;15.53;;;8.93;;
11008;SDS011;5557;51.670;7.788;2024-02-21T12:05:29;12.33;;;7.80;;
11008;SDS011;5557;51.670;7.788;2024-02-21T12:07:56;14.53;;;7.87;;
11008;SDS011;5557;51.670;7.788;2024-02-21T12:10:27;18.90;;;7.47;;
11008;SDS011;5557;51.670;7.788;2024-02-21T12:13:05;13.23;;;7.03;;
11008;SDS011;5557;51.670;7.788;2024-02-21T12:15:35;14.60;;;6.33;;
11008;SDS011;5557;51.670;7.788;2024-02-21T12:18:03;16.63;;;6.57;;
11008;SDS011;5557;51.670;7.788;2024-02-21T12:20:31;14.33;;;5.63;;
11008;SDS011;5557;51.670;7.788;2024-02-21T12:23:02;10.70;;;5.30;;
11008;SDS011;5557;51.670;7.788;2024-02-21T12:25:30;18.57;;;7.17;;
11008;SDS011;5557;51.670;7.788;2024-02-21T12:27:58;9.10;;;4.80;;
11008;SDS011;5557;51.670;7.788;2024-02-21T12:30:36;8.07;;;4.30;;
11008;SDS011;5557;51.670;7.788;2024-02-21T12:33:07;7.23;;;4.20;;
11008;SDS011;5557;51.670;7.788;2024-02-21T12:35:36;7.00;;;4.10;;
11008;SDS011;5557;51.670;7.788;2024-02-21T12:38:03;11.10;;;4.73;;
11008;SDS011;5557;51.670;7.788;2024-02-21T12:40:31;10.23;;;3.97;;
11008;SDS011;5557;51.670;7.788;2024-02-21T12:42:59;7.23;;;4.50;;
11008;SDS011;5557;51.670;7.788;2024-02-21T12:45:29;6.47;;;4.47;;
11008;SDS011;5557;51.670;7.788;2024-02-21T12:47:57;8.27;;;3.83;;
11008;SDS011;5557;51.670;7.788;2024-02-21T12:50:24;11.00;;;3.97;;
11008;SDS011;5557;51.670;7.788;2024-02-21T12:52:52;12.93;;;3.80;;
11008;SDS011;5557;51.670;7.788;2024-02-21T12:55:19;6.33;;;3.53;;
11008;SDS011;5557;51.670;7.788;2024-02-21T12:57:46;7.37;;;4.13;;
11008;SDS011;5557;51.670;7.788;2024-02-21T13:00:13;4.20;;;3.47;;
11008;SDS011;5557;51.670;7.788;2024-02-21T13:02:41;10.63;;;5.10;;
11008;SDS011;5557;51.670;7.788;2024-02-21T13:05:09;9.23;;;4.03;;
11008;SDS011;5557;51.670;7.788;2024-02-21T13:07:36;7.17;;;3.33;;
11008;SDS011;5557;51.670;7.788;2024-02-21T13:10:04;4.13;;;3.77;;
11008;SDS011;5557;51.670;7.788;2024-02-21T13:12:34;8.17;;;3.60;;
11008;SDS011;5557;51.670;7.788;2024-02-21T13:15:03;8.33;;;3.20;;
11008;SDS011;5557;51.670;7.788;2024-02-21T13:17:31;8.80;;;3.90;;
11008;SDS011;5557;51.670;7.788;2024-02-21T13:19:58;11.77;;;3.90;;
11008;SDS011;5557;51.670;7.788;2024-02-21T13:22:26;12.83;;;3.67;;
11008;SDS011;5557;51.670;7.788;2024-02-21T13:24:54;4.37;;;3.40;;
11008;SDS011;5557;51.670;7.788;2024-02-21T13:27:23;11.07;;;3.43;;
11008;SDS011;5557;51.670;7.788;2024-02-21T13:29:50;9.90;;;3.83;;
11008;SDS011;5557;51.670;7.788;2024-02-21T13:32:18;8.93;;;3.30;;
11008;SDS011;5557;51.670;7.788;2024-02-21T13:34:46;11.77;;;3.80;;
11008;SDS011;5557;51.670;7.788;2024-02-21T13:37:14;8.63;;;3.50;;
11008;SDS011;5557;51.670;7.788;2024-02-21T13:39:41;5.07;;;3.03;;
11008;SDS011;5557;51.670;7.788;2024-02-21T13:42:09;21.37;;;4.80;;
11008;SDS011;5557;51.670;7.788;2024-02-21T13:44:36;7.60;;;2.70;;
11008;SDS011;5557;51.670;7.788;2024-02-21T13:47:03;3.83;;;3.23;;
11008;SDS011;5557;51.670;7.788;2024-02-21T13:49:31;8.23;;;3.07;;
11008;SDS011;5557;51.670;7.788;2024-02-21T13:51:59;5.20;;;3.33;;
11008;SDS011;5557;51.670;7.788;2024-02-21T13:54:26;9.23;;;3.27;;
11008;SDS011;5557;51.670;7.788;2024-02-21T13:56:53;6.37;;;3.37;;
11008;SDS011;5557;51.670;7.788;2024-02-21T13:59:20;9.73;;;2.37;;
11008;SDS011;5557;51.670;7.788;2024-02-21T14:01:47;3.00;;;2.50;;
11008;SDS011;5557;51.670;7.788;2024-02-21T14:04:14;8.20;;;3.10;;
11008;SDS011;5557;51.670;7.788;2024-02-21T14:06:41;3.07;;;2.77;;
11008;SDS011;5557;51.670;7.788;2024-02-21T14:09:10;6.23;;;3.20;;
11008;SDS011;5557;51.670;7.788;2024-02-21T14:11:37;8.20;;;2.90;;
11008;SDS011;5557;51.670;7.788;2024-02-21T14:14:06;6.43;;;2.93;;
11008;SDS011;5557;51.670;7.788;2024-02-21T14:16:33;6.80;;;2.97;;
11008;SDS011;5557;51.670;7.788;2024-02-21T14:19:00;5.73;;;2.80;;
11008;SDS011;5557;51.670;7.788;2024-02-21T14:21:28;4.27;;;2.60;;
11008;SDS011;5557;51.670;7.788;2024-02-21T14:23:56;3.50;;;2.80;;
11008;SDS011;5557;51.670;7.788;2024-02-21T14:26:24;7.43;;;3.00;;
11008;SDS011;5557;51.670;7.788;2024-02-21T14:28:51;4.83;;;2.97;;
11008;SDS011;5557;51.670;7.788;2024-02-21T14:31:19;13.20;;;2.77;;
11008;SDS011;5557;51.670;7.788;2024-02-21T14:33:47;5.60;;;2.50;;
11008;SDS011;5557;51.670;7.788;2024-02-21T14:36:15;7.57;;;3.50;;
11008;SDS011;5557;51.670;7.788;2024-02-21T14:38:43;8.50;;;3.43;;
11008;SDS011;5557;51.670;7.788;2024-02-21T14:41:10;6.03;;;3.10;;
11008;SDS011;5557;51.670;7.788;2024-02-21T14:43:40;8.37;;;3.23;;
11008;SDS011;5557;51.670;7.788;2024-02-21T14:46:09;8.43;;;3.67;;
11008;SDS011;5557;51.670;7.788;2024-02-21T14:48:38;9.87;;;4.30;;
11008;SDS011;5557;51.670;7.788;2024-02-21T14:51:05;5.57;;;3.13;;
11008;SDS011;5557;51.670;7.788;2024-02-21T14:53:32;5.63;;;3.27;;
11008;SDS011;5557;51.670;7.788;2024-02-21T14:55:59;10.03;;;3.80;;
11008;SDS011;5557;51.670;7.788;2024-02-21T14:58:27;11.33;;;4.10;;
11008;SDS011;5557;51.670;7.788;2024-02-21T15:00:54;6.53;;;3.73;;
11008;SDS011;5557;51.670;7.788;2024-02-21T15:03:21;9.20;;;3.70;;
11008;SDS011;5557;51.670;7.788;2024-02-21T15:05:48;4.57;;;3.17;;